| Date | Time | Temp. (oF) | Dew Point (oF) | Rel. Hum. (%) | Press. (in.) | Wind Dir. | Wind Speed (mph) | Hourly Rainfall (in.) |
|
|---|---|---|---|---|---|---|---|---|---|
| 1 | 03/02 | 00:00 | 25 | 22 | 89 | 30.01 | NNE | 10 | 0.00 |
| 2 | 03/01 | 23:00 | 25 | 23 | 95 | 30.04 | NNW | 7 | 0.01 |
| 3 | 03/01 | 22:00 | 31 | 25 | 79 | 30.03 | NNE | 16 | 0.00 |
| 4 | 03/01 | 21:00 | 37 | 20 | 52 | 29.98 | NNE | 13 | 0.00 |
| 5 | 03/01 | 20:00 | 38 | 20 | 49 | 30.00 | NNE | 7 | 0.00 |
| 6 | 03/01 | 19:00 | 39 | 22 | 51 | 30.00 | N | 8 | 0.00 |
| 7 | 03/01 | 18:00 | 38 | 25 | 60 | 29.98 | NE | 3 | 0.00 |
| 8 | 03/01 | 17:00 | 40 | 25 | 56 | 29.99 | ENE | 1 | 0.00 |
| 9 | 03/01 | 16:00 | 40 | 24 | 54 | 29.99 | ENE | 8 | 0.00 |
| 10 | 03/01 | 15:00 | 39 | 24 | 56 | 29.99 | NNE | 5 | 0.00 |
| 11 | 03/01 | 14:00 | 37 | 25 | 62 | 30.01 | N | 7 | 0.00 |
| 12 | 03/01 | 13:00 | 36 | 24 | 64 | 30.03 | NNW | 4 | 0.00 |
| 13 | 03/01 | 12:00 | 34 | 23 | 66 | 30.06 | N | 10 | 0.00 |
| 14 | 03/01 | 11:00 | 32 | 23 | 70 | 30.08 | N | 7 | 0.00 |
| 15 | 03/01 | 10:00 | 31 | 24 | 78 | 30.07 | NE | 8 | 0.00 |
| 16 | 03/01 | 09:00 | 29 | 24 | 83 | 30.09 | NNE | 8 | 0.00 |
| 17 | 03/01 | 08:00 | 27 | 23 | 87 | 30.10 | NE | 6 | 0.00 |
| 18 | 03/01 | 07:00 | 27 | 24 | 92 | 30.10 | N | 3 | 0.00 |
| 19 | 03/01 | 06:00 | 27 | 24 | 90 | 30.08 | N | 2 | 0.00 |
| 20 | 03/01 | 05:00 | 27 | 23 | 85 | 30.09 | N | 5 | 0.00 |
| 21 | 03/01 | 04:00 | 28 | 22 | 80 | 30.09 | NE | 10 | 0.00 |
| 22 | 03/01 | 03:00 | 31 | 20 | 64 | 30.10 | NE | 5 | 0.00 |
| 23 | 03/01 | 02:00 | 33 | 19 | 57 | 30.12 | ENE | 4 | 0.00 |
| 24 | 03/01 | 01:00 | 33 | 18 | 54 | 30.13 | ENE | 8 | 0.00 |